createdAt,value
2017-09-22T00:00:21.238Z,12.64
2017-09-22T00:02:48.708Z,12.59
2017-09-22T00:05:16.272Z,12.63
2017-09-22T00:07:43.827Z,12.60
2017-09-22T00:10:11.309Z,12.57
2017-09-22T00:12:38.799Z,12.57
2017-09-22T00:15:06.262Z,12.56
2017-09-22T00:17:33.749Z,12.49
2017-09-22T00:20:01.238Z,12.46
2017-09-22T00:22:28.757Z,12.43
2017-09-22T00:24:56.356Z,12.38
2017-09-22T00:27:24.048Z,12.35
2017-09-22T00:29:51.640Z,12.35
2017-09-22T00:32:19.135Z,12.27
2017-09-22T00:34:46.866Z,12.24
2017-09-22T00:37:14.332Z,12.22
2017-09-22T00:39:41.822Z,12.20
2017-09-22T00:42:09.325Z,12.17
2017-09-22T00:44:36.786Z,12.18
2017-09-22T00:47:04.287Z,12.21
2017-09-22T00:49:31.759Z,12.04
2017-09-22T00:51:59.252Z,12.03
2017-09-22T00:54:26.739Z,12.03
2017-09-22T00:56:54.218Z,12.03
2017-09-22T00:59:21.722Z,12.02
2017-09-22T01:01:49.529Z,12.03
2017-09-22T01:04:17.250Z,12.00
2017-09-22T01:06:45.430Z,11.96
2017-09-22T01:09:12.997Z,11.89
2017-09-22T01:11:40.468Z,11.87
2017-09-22T01:14:08.212Z,11.85
2017-09-22T01:16:35.992Z,11.84
2017-09-22T01:19:03.617Z,11.83
2017-09-22T01:21:31.097Z,11.81
2017-09-22T01:23:58.804Z,11.81
2017-09-22T01:26:26.370Z,11.79
2017-09-22T01:28:53.877Z,11.71
2017-09-22T01:31:22.260Z,11.74
2017-09-22T01:33:49.733Z,11.75
2017-09-22T01:36:17.219Z,11.75
2017-09-22T01:38:44.713Z,11.71
2017-09-22T01:41:12.177Z,11.66
2017-09-22T01:43:39.655Z,11.55
2017-09-22T01:46:07.100Z,11.55
2017-09-22T01:48:34.698Z,11.55
2017-09-22T01:51:02.193Z,11.54
2017-09-22T01:53:29.716Z,11.47
2017-09-22T01:55:57.210Z,11.50
2017-09-22T01:58:24.766Z,11.54
2017-09-22T02:00:52.224Z,11.51
2017-09-22T02:03:19.704Z,11.52
2017-09-22T02:05:47.208Z,11.50
2017-09-22T02:08:14.665Z,11.35
2017-09-22T02:10:42.160Z,11.37
2017-09-22T02:13:09.641Z,11.33
2017-09-22T02:15:37.100Z,11.29
2017-09-22T02:18:04.620Z,11.30
2017-09-22T02:20:32.095Z,11.27
2017-09-22T02:22:59.573Z,11.18
2017-09-22T02:25:27.073Z,11.21
2017-09-22T02:27:54.747Z,11.15
2017-09-22T02:30:22.224Z,11.17
2017-09-22T02:32:49.710Z,11.17
2017-09-22T02:35:17.184Z,11.18
2017-09-22T02:37:44.690Z,11.13
2017-09-22T02:40:12.210Z,11.07
2017-09-22T02:42:39.776Z,11.07
2017-09-22T02:45:07.478Z,11.13
2017-09-22T02:47:34.977Z,11.09
2017-09-22T02:50:02.463Z,11.07
2017-09-22T02:52:29.946Z,11.10
2017-09-22T02:54:57.432Z,11.04
2017-09-22T02:57:24.930Z,11.05
2017-09-22T02:59:52.457Z,11.05
2017-09-22T03:02:19.988Z,10.99
2017-09-22T03:04:48.407Z,10.89
2017-09-22T03:07:15.885Z,10.89
2017-09-22T03:09:43.401Z,10.88
2017-09-22T03:12:10.864Z,10.90
2017-09-22T03:14:38.360Z,10.88
2017-09-22T03:17:05.848Z,10.88
2017-09-22T03:19:33.349Z,10.79
2017-09-22T03:22:00.815Z,10.78
2017-09-22T03:24:28.304Z,10.81
2017-09-22T03:26:55.780Z,10.68
2017-09-22T03:29:23.416Z,10.75
2017-09-22T03:31:50.877Z,10.76
2017-09-22T03:34:18.339Z,10.69
2017-09-22T03:36:45.828Z,10.70
2017-09-22T03:39:13.339Z,10.63
2017-09-22T03:41:40.835Z,10.61
2017-09-22T03:44:08.339Z,10.58
2017-09-22T03:46:35.845Z,10.39
2017-09-22T03:49:03.336Z,10.38
2017-09-22T03:51:31.030Z,10.43
2017-09-22T03:53:58.551Z,10.46
2017-09-22T03:56:26.341Z,10.50
2017-09-22T03:58:53.860Z,10.38
2017-09-22T04:01:21.332Z,10.36
2017-09-22T04:03:48.851Z,10.37
2017-09-22T04:06:16.401Z,10.25
2017-09-22T04:08:43.933Z,10.30
2017-09-22T04:11:11.444Z,10.35
2017-09-22T04:13:38.908Z,10.26
2017-09-22T04:16:06.415Z,10.31
2017-09-22T04:18:34.037Z,10.31
2017-09-22T04:21:01.551Z,10.28
2017-09-22T04:23:29.020Z,10.26
2017-09-22T04:25:56.484Z,10.24
2017-09-22T04:28:24.014Z,10.24
2017-09-22T04:30:51.481Z,10.22
2017-09-22T04:33:19.488Z,10.23
2017-09-22T04:35:46.974Z,10.18
2017-09-22T04:38:14.457Z,10.11
2017-09-22T04:40:41.980Z,10.13
2017-09-22T04:43:10.315Z,10.04
2017-09-22T04:45:37.860Z,10.03
2017-09-22T04:48:05.341Z,9.92
2017-09-22T04:50:32.843Z,10.03
2017-09-22T04:53:00.308Z,10.08
2017-09-22T04:55:27.808Z,10.10
2017-09-22T04:57:55.345Z,10.12
2017-09-22T05:00:22.827Z,10.11
2017-09-22T05:02:50.320Z,10.11
2017-09-22T05:05:17.795Z,10.14
2017-09-22T05:07:45.353Z,10.10
2017-09-22T05:10:12.849Z,10.17
2017-09-22T05:12:41.203Z,10.19
2017-09-22T05:15:08.699Z,10.16
2017-09-22T05:17:36.195Z,10.12
2017-09-22T05:20:03.678Z,10.12
2017-09-22T05:22:31.787Z,10.13
2017-09-22T05:24:59.289Z,10.10
2017-09-22T05:27:26.785Z,10.11
2017-09-22T05:29:54.267Z,10.12
2017-09-22T05:32:21.783Z,10.17
2017-09-22T05:34:49.425Z,10.18
2017-09-22T05:37:16.926Z,10.21
2017-09-22T05:39:44.407Z,10.22
2017-09-22T05:42:11.900Z,10.35
2017-09-22T05:44:39.383Z,10.49
2017-09-22T05:47:06.860Z,10.61
2017-09-22T05:49:34.358Z,10.77
2017-09-22T05:52:01.832Z,10.87
2017-09-22T05:54:29.516Z,10.89
2017-09-22T05:56:57.892Z,10.87
2017-09-22T05:59:25.458Z,10.92
2017-09-22T06:01:53.012Z,10.93
2017-09-22T06:04:20.499Z,10.97
2017-09-22T06:06:47.975Z,10.98
2017-09-22T06:09:15.660Z,11.09
2017-09-22T06:11:43.160Z,11.23
2017-09-22T06:14:10.635Z,11.40
2017-09-22T06:16:38.134Z,11.57
2017-09-22T06:19:05.596Z,11.72
2017-09-22T06:21:33.105Z,11.85
2017-09-22T06:24:00.739Z,11.85
2017-09-22T06:26:28.204Z,11.88
2017-09-22T06:28:55.723Z,12.62
2017-09-22T06:31:23.199Z,12.72
2017-09-22T06:33:50.693Z,12.68
2017-09-22T06:36:18.169Z,12.68
2017-09-22T06:38:45.952Z,12.71
2017-09-22T06:41:13.427Z,12.74
2017-09-22T06:43:41.155Z,12.78
2017-09-22T06:46:08.676Z,12.83
2017-09-22T06:48:36.166Z,12.87
2017-09-22T06:51:03.942Z,12.91
2017-09-22T06:53:31.429Z,12.85
2017-09-22T06:55:59.093Z,12.98
2017-09-22T06:58:26.649Z,13.03
2017-09-22T07:00:54.227Z,13.11
2017-09-22T07:03:21.829Z,13.19
2017-09-22T07:05:49.425Z,13.16
2017-09-22T07:08:17.114Z,13.10
2017-09-22T07:10:52.490Z,13.31
2017-09-22T07:13:20.066Z,13.23
2017-09-22T07:34:49.570Z,13.83
2017-09-22T07:37:17.180Z,14.13
2017-09-22T07:43:14.994Z,14.85
2017-09-22T07:45:42.550Z,14.94
2017-09-22T07:48:11.268Z,14.85
2017-09-22T07:50:47.476Z,15.04
2017-09-22T07:53:15.064Z,15.15
2017-09-22T07:55:43.635Z,15.50
2017-09-22T07:58:14.352Z,16.12
2017-09-22T08:00:41.913Z,17.28
2017-09-22T08:03:09.848Z,19.53
2017-09-22T08:06:03.592Z,21.68
2017-09-22T08:08:31.204Z,23.76
2017-09-22T08:11:00.409Z,24.90
2017-09-22T08:19:15.741Z,27.98
2017-09-22T08:21:43.466Z,28.58
2017-09-22T08:24:11.142Z,29.36
2017-09-22T08:26:38.802Z,29.83
2017-09-22T08:29:06.863Z,29.42
2017-09-22T08:31:34.396Z,29.00
2017-09-22T08:34:01.916Z,28.62
2017-09-22T08:36:29.395Z,30.10
2017-09-22T08:38:56.944Z,29.93
2017-09-22T08:41:24.470Z,30.63
2017-09-22T08:43:51.998Z,28.36
2017-09-22T08:46:19.559Z,27.94
2017-09-22T08:48:47.155Z,28.19
2017-09-22T08:51:15.718Z,26.46
2017-09-22T08:53:43.376Z,24.57
2017-09-22T08:56:11.023Z,23.48
2017-09-22T08:58:38.564Z,23.65
2017-09-22T09:01:21.799Z,25.67
2017-09-22T09:03:49.359Z,27.57
2017-09-22T09:06:16.993Z,29.11
2017-09-22T09:08:44.571Z,30.20
2017-09-22T09:11:12.092Z,29.52
2017-09-22T09:13:42.832Z,27.84
2017-09-22T09:16:10.441Z,27.29
2017-09-22T09:18:37.984Z,26.25
2017-09-22T09:21:05.534Z,26.11
2017-09-22T09:26:20.818Z,30.95
2017-09-22T09:31:39.166Z,32.58
2017-09-22T09:34:09.581Z,33.59
2017-09-22T09:39:34.582Z,35.02
2017-09-22T09:42:25.213Z,34.77
2017-09-22T09:44:54.876Z,34.98
2017-09-22T09:47:46.972Z,34.57
2017-09-22T09:50:29.203Z,34.38
2017-09-22T09:52:56.746Z,35.35
2017-09-22T09:55:46.457Z,36.60
2017-09-22T09:58:14.350Z,37.32
2017-09-22T10:01:02.769Z,36.14
2017-09-22T10:29:19.081Z,38.18
2017-09-22T10:59:05.906Z,37.13
2017-09-22T11:04:27.746Z,37.14
2017-09-22T11:06:55.311Z,38.30
2017-09-22T11:09:22.802Z,39.07
2017-09-22T11:11:50.891Z,39.41
2017-09-22T11:14:19.503Z,39.08
2017-09-22T11:40:03.103Z,41.26
2017-09-22T11:42:39.861Z,41.11
2017-09-22T13:34:47.509Z,28.97
2017-09-22T15:23:04.488Z,24.79
2017-09-22T16:10:10.529Z,23.48
2017-09-22T17:43:43.999Z,21.62
2017-09-22T17:46:11.896Z,21.62
2017-09-22T17:48:40.313Z,21.62
2017-09-22T17:51:08.210Z,21.65
2017-09-22T17:56:28.387Z,21.56
2017-09-22T17:58:56.502Z,21.55
2017-09-22T18:01:34.176Z,21.48
